createdAt,value
2022-08-09T00:00:20.941Z,99.90
2022-08-09T00:02:49.294Z,99.90
2022-08-09T00:06:15.638Z,99.90
2022-08-09T00:08:11.367Z,99.90
2022-08-09T00:10:41.343Z,99.90
2022-08-09T00:13:16.813Z,99.90
2022-08-09T00:15:59.287Z,99.90
2022-08-09T00:18:31.460Z,99.90
2022-08-09T00:21:04.505Z,99.90
2022-08-09T00:23:55.161Z,99.90
2022-08-09T00:26:19.022Z,99.90
2022-08-09T00:28:56.826Z,99.90
2022-08-09T00:31:57.150Z,99.90
2022-08-09T00:34:12.435Z,99.90
2022-08-09T00:36:39.963Z,99.90
2022-08-09T00:39:17.064Z,99.90
2022-08-09T00:44:10.586Z,99.90
2022-08-09T00:44:47.088Z,99.90
2022-08-09T00:47:15.644Z,99.90
2022-08-09T00:49:52.568Z,99.90
2022-08-09T00:52:30.523Z,99.90
2022-08-09T00:55:00.244Z,99.90
2022-08-09T00:57:34.255Z,99.90
2022-08-09T01:00:21.093Z,99.90
2022-08-09T01:03:28.436Z,99.90
2022-08-09T01:06:17.435Z,99.90
2022-08-09T01:08:58.381Z,99.90
2022-08-09T01:11:53.450Z,99.90
2022-08-09T01:14:25.976Z,99.90
2022-08-09T01:17:01.256Z,99.90
2022-08-09T01:20:01.810Z,99.90
2022-08-09T01:22:35.827Z,99.90
2022-08-09T01:25:41.885Z,99.90
2022-08-09T01:28:11.389Z,99.90
2022-08-09T01:30:51.809Z,99.90
2022-08-09T01:33:25.531Z,99.90
2022-08-09T01:36:18.721Z,99.90
2022-08-09T01:38:47.247Z,99.90
2022-08-09T01:41:30.348Z,99.90
2022-08-09T01:44:01.177Z,99.90
2022-08-09T01:46:32.588Z,99.90
2022-08-09T01:49:14.722Z,99.90
2022-08-09T01:51:53.623Z,99.90
2022-08-09T01:54:25.727Z,99.90
2022-08-09T01:56:55.061Z,99.90
2022-08-09T01:59:24.401Z,99.90
2022-08-09T02:02:01.142Z,99.80
2022-08-09T02:04:31.870Z,99.90
2022-08-09T02:07:18.488Z,99.90
2022-08-09T02:10:12.236Z,99.90
2022-08-09T02:12:40.386Z,99.90
2022-08-09T02:15:11.794Z,99.90
2022-08-09T02:18:01.383Z,99.90
2022-08-09T02:20:36.129Z,99.90
2022-08-09T02:23:11.046Z,99.90
2022-08-09T02:25:42.278Z,99.90
2022-08-09T02:28:20.743Z,99.90
2022-08-09T02:31:06.907Z,99.90
2022-08-09T02:34:07.447Z,99.90
2022-08-09T02:36:35.506Z,99.90
2022-08-09T02:39:14.486Z,99.90
2022-08-09T02:41:55.436Z,99.90
2022-08-09T02:44:31.297Z,99.90
2022-08-09T02:47:04.245Z,99.90
2022-08-09T02:49:41.344Z,99.90
2022-08-09T02:52:13.697Z,99.90
2022-08-09T02:54:54.071Z,99.90
2022-08-09T02:57:25.035Z,99.90
2022-08-09T03:00:21.195Z,99.90
2022-08-09T03:02:58.546Z,99.90
2022-08-09T03:05:28.839Z,99.90
2022-08-09T03:07:57.707Z,99.90
2022-08-09T03:10:26.374Z,99.90
2022-08-09T03:12:54.892Z,99.90
2022-08-09T03:15:23.474Z,99.90
2022-08-09T03:17:57.901Z,99.90
2022-08-09T03:20:29.490Z,99.90
2022-08-09T03:23:14.576Z,99.90
2022-08-09T03:25:58.240Z,99.90
2022-08-09T03:28:27.724Z,99.90
2022-08-09T03:30:55.698Z,99.90
2022-08-09T03:33:24.669Z,99.90
2022-08-09T03:36:13.571Z,99.90
2022-08-09T03:38:43.592Z,99.90
2022-08-09T03:41:15.698Z,99.90
2022-08-09T03:44:03.675Z,99.90
2022-08-09T03:46:31.700Z,99.90
2022-08-09T03:49:04.060Z,99.90
2022-08-09T03:51:54.234Z,99.90
2022-08-09T03:54:29.732Z,99.90
2022-08-09T03:57:00.902Z,99.90
2022-08-09T03:59:53.061Z,99.90
2022-08-09T04:02:26.281Z,99.90
2022-08-09T04:04:59.325Z,99.90
2022-08-09T04:07:47.593Z,99.90
2022-08-09T04:10:18.415Z,99.90
2022-08-09T04:12:51.351Z,99.90
2022-08-09T04:15:42.621Z,99.90
2022-08-09T04:18:07.957Z,99.90
2022-08-09T04:20:35.560Z,99.90
2022-08-09T04:23:03.557Z,99.90
2022-08-09T04:25:37.176Z,99.90
2022-08-09T04:28:04.353Z,99.90
2022-08-09T04:30:32.601Z,99.90
2022-08-09T04:33:01.183Z,99.90
2022-08-09T04:35:29.261Z,99.90
2022-08-09T04:37:59.618Z,99.90
2022-08-09T04:40:48.342Z,99.90
2022-08-09T04:43:23.267Z,99.90
2022-08-09T04:45:53.593Z,99.90
2022-08-09T04:48:23.836Z,99.90
2022-08-09T04:51:00.643Z,99.90
2022-08-09T04:53:28.611Z,99.90
2022-08-09T04:55:59.621Z,99.90
2022-08-09T04:58:31.887Z,99.90
2022-08-09T05:01:01.472Z,99.90
2022-08-09T05:03:41.131Z,99.90
2022-08-09T05:06:26.725Z,99.90
2022-08-09T05:09:00.291Z,99.90
2022-08-09T05:11:32.421Z,99.90
2022-08-09T05:14:05.801Z,99.90
2022-08-09T05:16:58.225Z,99.90
2022-08-09T05:19:25.989Z,99.90
2022-08-09T05:21:59.163Z,99.90
2022-08-09T05:24:27.268Z,99.90
2022-08-09T05:26:54.546Z,99.90
2022-08-09T05:29:24.061Z,99.90
2022-08-09T05:31:57.737Z,99.90
2022-08-09T05:34:32.506Z,99.90
2022-08-09T05:37:11.241Z,99.90
2022-08-09T05:39:43.716Z,99.90
2022-08-09T05:42:17.361Z,99.90
2022-08-09T05:44:52.624Z,99.90
2022-08-09T05:47:21.647Z,99.90
2022-08-09T05:50:25.630Z,99.90
2022-08-09T05:52:38.927Z,99.90
2022-08-09T05:55:08.797Z,99.90
2022-08-09T05:57:51.241Z,99.90
2022-08-09T06:00:25.682Z,99.90
2022-08-09T06:02:54.635Z,99.90
2022-08-09T06:05:30.839Z,99.90
2022-08-09T06:08:19.704Z,99.90
2022-08-09T06:10:52.268Z,99.90
2022-08-09T06:13:20.863Z,99.90
2022-08-09T06:15:51.348Z,99.90
2022-08-09T06:18:24.985Z,99.90
2022-08-09T06:20:57.827Z,99.90
2022-08-09T06:23:55.671Z,99.90
2022-08-09T06:26:20.930Z,99.90
2022-08-09T06:29:00.691Z,99.90
2022-08-09T06:31:40.285Z,99.90
2022-08-09T06:34:22.861Z,99.90
2022-08-09T06:36:59.085Z,99.90
2022-08-09T06:39:48.374Z,99.90
2022-08-09T06:42:15.781Z,99.90
2022-08-09T06:44:42.765Z,99.90
2022-08-09T06:47:10.717Z,99.90
2022-08-09T06:50:11.556Z,99.90
2022-08-09T06:52:26.658Z,99.90
2022-08-09T06:54:54.223Z,99.90
2022-08-09T06:57:42.758Z,99.90
2022-08-09T07:00:50.509Z,99.90
2022-08-09T07:02:57.787Z,99.90
2022-08-09T07:05:24.947Z,99.90
2022-08-09T07:08:12.051Z,99.90
2022-08-09T07:10:39.506Z,99.90
2022-08-09T07:13:27.617Z,99.90
2022-08-09T07:16:42.129Z,99.90
2022-08-09T07:18:40.970Z,99.90
2022-08-09T07:21:08.279Z,99.90
2022-08-09T07:23:36.398Z,99.90
2022-08-09T07:26:13.839Z,99.90
2022-08-09T07:29:07.857Z,99.90
2022-08-09T07:31:27.796Z,99.90
2022-08-09T07:33:56.460Z,99.90
2022-08-09T07:36:27.105Z,99.90
2022-08-09T07:39:00.441Z,99.90
2022-08-09T07:41:27.872Z,99.90
2022-08-09T07:44:00.111Z,99.90
2022-08-09T07:46:27.801Z,99.90
2022-08-09T07:48:59.615Z,99.90
2022-08-09T07:52:04.744Z,99.90
2022-08-09T07:54:15.521Z,99.90
2022-08-09T07:56:49.163Z,99.90
2022-08-09T07:59:25.154Z,99.90
2022-08-09T08:02:00.527Z,99.90
2022-08-09T08:04:32.375Z,99.90
2022-08-09T08:07:14.954Z,99.90
2022-08-09T08:09:53.382Z,99.90
2022-08-09T08:12:27.646Z,99.90
2022-08-09T08:14:57.000Z,99.90
2022-08-09T08:17:35.556Z,99.90
2022-08-09T08:20:12.543Z,99.90
2022-08-09T08:22:40.954Z,99.90
2022-08-09T08:25:13.480Z,99.90
2022-08-09T08:27:43.159Z,99.90
2022-08-09T08:30:12.239Z,99.90
2022-08-09T08:32:41.711Z,99.90
2022-08-09T08:35:22.507Z,99.90
2022-08-09T08:37:59.579Z,99.90
2022-08-09T08:40:35.477Z,99.90
2022-08-09T08:43:08.924Z,99.90
2022-08-09T08:45:53.579Z,99.90
2022-08-09T08:48:32.325Z,99.90
2022-08-09T08:51:00.319Z,99.90
2022-08-09T08:53:32.126Z,99.90
2022-08-09T08:56:04.891Z,99.90
2022-08-09T08:58:35.978Z,99.90
2022-08-09T09:01:09.006Z,99.90
2022-08-09T09:03:50.620Z,99.90
2022-08-09T09:06:19.636Z,99.90
2022-08-09T09:08:52.535Z,99.90
2022-08-09T09:11:28.291Z,99.90
2022-08-09T09:13:58.697Z,99.90
2022-08-09T09:16:30.591Z,99.90
2022-08-09T09:22:04.026Z,99.90
2022-08-09T09:24:38.864Z,99.90
2022-08-09T09:27:08.908Z,99.90
2022-08-09T09:30:12.088Z,99.90
2022-08-09T09:32:34.876Z,99.90
2022-08-09T09:35:09.952Z,99.90
2022-08-09T09:37:40.334Z,99.90
2022-08-09T09:40:09.313Z,99.90
2022-08-09T09:42:36.391Z,99.90
2022-08-09T09:45:08.363Z,99.90
2022-08-09T09:47:47.595Z,99.90
2022-08-09T09:50:23.119Z,99.90
2022-08-09T09:52:53.422Z,99.90
2022-08-09T09:55:28.442Z,99.90
2022-08-09T09:58:16.138Z,99.90
2022-08-09T10:00:55.066Z,99.90
2022-08-09T10:03:38.365Z,99.90
2022-08-09T10:06:07.246Z,99.90
2022-08-09T10:08:54.344Z,99.90
2022-08-09T10:11:59.979Z,99.90
2022-08-09T10:14:30.655Z,97.80
2022-08-09T10:17:39.701Z,96.00
2022-08-09T10:19:57.228Z,93.90
2022-08-09T10:22:34.097Z,93.60
2022-08-09T10:25:10.909Z,92.20
2022-08-09T10:27:54.531Z,91.30
2022-08-09T10:33:29.569Z,85.00
2022-08-09T10:36:05.348Z,85.70
2022-08-09T10:38:56.252Z,90.40
2022-08-09T10:41:25.304Z,91.80
2022-08-09T10:43:59.427Z,91.30
2022-08-09T10:46:55.095Z,90.70
2022-08-09T10:49:49.926Z,88.90
2022-08-09T10:52:48.698Z,89.10
2022-08-09T10:55:35.537Z,87.40
2022-08-09T10:58:34.830Z,86.70
2022-08-09T11:03:11.776Z,82.40
2022-08-09T11:04:19.814Z,81.20
2022-08-09T11:07:20.033Z,79.30
2022-08-09T11:09:51.251Z,78.30
2022-08-09T11:12:29.869Z,79.80
2022-08-09T11:14:59.088Z,81.20
2022-08-09T11:17:26.371Z,84.60
2022-08-09T11:20:22.368Z,84.70
2022-08-09T11:22:56.643Z,85.00
2022-08-09T11:25:36.001Z,84.30
2022-08-09T11:28:54.045Z,84.00
2022-08-09T11:31:49.933Z,86.30
2022-08-09T11:34:44.065Z,91.20
2022-08-09T11:37:24.395Z,91.80
2022-08-09T11:40:08.159Z,94.20
2022-08-09T11:42:41.031Z,95.90
2022-08-09T11:45:22.930Z,96.10
2022-08-09T11:48:02.755Z,95.10
2022-08-09T11:52:56.337Z,94.90
2022-08-09T11:54:14.744Z,94.80
2022-08-09T11:57:59.724Z,94.90
2022-08-09T12:00:27.650Z,94.60
2022-08-09T12:02:56.666Z,93.80
2022-08-09T12:05:42.157Z,92.20
2022-08-09T12:08:21.698Z,92.10
2022-08-09T12:10:54.857Z,93.50
2022-08-09T12:14:09.977Z,95.70
2022-08-09T12:16:38.544Z,95.30
2022-08-09T12:19:09.528Z,96.10
2022-08-09T12:21:48.532Z,95.70
2022-08-09T12:24:25.369Z,95.00
2022-08-09T12:29:09.975Z,92.60
2022-08-09T12:30:01.458Z,90.90
2022-08-09T12:32:44.251Z,92.00
2022-08-09T12:35:13.154Z,93.20
2022-08-09T12:37:51.831Z,94.60
2022-08-09T12:40:24.469Z,96.80
2022-08-09T12:42:51.922Z,96.60
2022-08-09T12:45:34.706Z,98.60
2022-08-09T12:48:20.137Z,98.90
2022-08-09T12:50:58.124Z,98.40
2022-08-09T12:53:37.072Z,99.00
2022-08-09T12:56:39.916Z,99.60
2022-08-09T12:59:22.245Z,99.80
2022-08-09T13:02:09.381Z,99.90
2022-08-09T13:04:38.704Z,99.70
2022-08-09T13:07:16.652Z,99.80
2022-08-09T13:09:55.991Z,99.90
2022-08-09T13:12:29.311Z,99.90
2022-08-09T13:15:09.928Z,99.90
2022-08-09T13:18:02.435Z,99.90
2022-08-09T13:20:37.710Z,99.90
2022-08-09T13:24:17.125Z,99.90
2022-08-09T13:26:05.924Z,99.90
2022-08-09T13:28:39.538Z,99.90
2022-08-09T13:32:19.542Z,99.90
2022-08-09T13:33:58.976Z,99.90
2022-08-09T13:36:41.384Z,99.90
2022-08-09T13:41:46.857Z,99.90
2022-08-09T13:42:12.286Z,99.90
2022-08-09T13:44:42.204Z,99.90
2022-08-09T13:47:25.473Z,99.90
2022-08-09T13:50:01.742Z,99.60
2022-08-09T13:52:30.456Z,99.50
2022-08-09T13:55:00.935Z,99.90
2022-08-09T13:57:36.908Z,99.90
2022-08-09T14:00:12.157Z,99.90
2022-08-09T14:02:42.798Z,99.90
2022-08-09T14:05:58.778Z,99.90
2022-08-09T14:08:17.461Z,99.90
2022-08-09T14:10:50.298Z,99.90
2022-08-09T14:14:14.877Z,99.90
2022-08-09T14:16:15.285Z,99.90
2022-08-09T14:18:49.524Z,99.90
2022-08-09T14:21:23.423Z,99.90
2022-08-09T14:23:55.087Z,99.90
2022-08-09T14:26:31.926Z,99.90
2022-08-09T14:29:07.738Z,99.90
2022-08-09T14:31:53.865Z,99.90
2022-08-09T14:34:31.778Z,99.90
2022-08-09T14:37:08.016Z,99.90
2022-08-09T14:39:47.418Z,99.90
2022-08-09T14:42:31.647Z,99.90
2022-08-09T14:46:40.149Z,99.90
2022-08-09T14:47:58.087Z,99.90
2022-08-09T14:50:27.002Z,99.90
2022-08-09T14:52:54.059Z,99.90
2022-08-09T14:55:21.827Z,99.90
2022-08-09T14:57:49.427Z,99.90
2022-08-09T15:00:17.809Z,99.90
2022-08-09T15:02:47.760Z,99.90
2022-08-09T15:05:19.169Z,99.90
2022-08-09T15:07:54.562Z,99.90
2022-08-09T15:10:25.052Z,99.90
2022-08-09T15:12:53.606Z,99.90
2022-08-09T15:15:24.109Z,99.90
2022-08-09T15:17:53.207Z,99.90
2022-08-09T15:21:55.995Z,99.90
2022-08-09T15:24:02.513Z,99.90
2022-08-09T15:25:58.701Z,99.90
2022-08-09T15:28:27.716Z,99.90
2022-08-09T15:31:10.200Z,99.90
2022-08-09T15:34:17.311Z,99.90
2022-08-09T15:36:30.341Z,99.90
2022-08-09T15:39:00.198Z,99.90
2022-08-09T15:41:31.437Z,99.90
2022-08-09T15:44:02.737Z,99.90
2022-08-09T15:46:33.696Z,99.90
2022-08-09T15:49:21.340Z,99.90
2022-08-09T15:52:02.964Z,99.90
2022-08-09T15:54:46.273Z,99.90
2022-08-09T15:57:35.573Z,99.90
2022-08-09T16:00:24.286Z,99.90
2022-08-09T16:02:54.650Z,99.90
2022-08-09T16:05:24.085Z,99.90
2022-08-09T16:07:51.316Z,99.90
2022-08-09T16:10:56.077Z,99.90
2022-08-09T16:13:20.901Z,99.90
2022-08-09T16:16:11.973Z,99.90
2022-08-09T16:18:44.870Z,99.90
2022-08-09T16:21:17.293Z,99.90
2022-08-09T16:23:55.560Z,99.90
2022-08-09T16:26:34.593Z,99.90
2022-08-09T16:29:05.960Z,99.90
2022-08-09T16:32:18.083Z,99.90
2022-08-09T16:34:55.721Z,99.90
2022-08-09T16:37:53.027Z,99.90
2022-08-09T16:40:10.510Z,99.90
2022-08-09T16:42:37.932Z,99.90
2022-08-09T16:45:06.640Z,99.90
2022-08-09T16:48:49.600Z,99.90
2022-08-09T16:50:32.281Z,99.90
2022-08-09T16:53:02.055Z,99.90
2022-08-09T16:55:44.133Z,99.90
2022-08-09T16:58:17.339Z,99.90
2022-08-09T17:00:46.695Z,99.90
2022-08-09T17:03:21.747Z,99.90
2022-08-09T17:06:06.587Z,99.90
2022-08-09T17:08:56.767Z,99.90
2022-08-09T17:11:32.933Z,99.90
2022-08-09T17:14:25.624Z,99.90
2022-08-09T17:17:02.789Z,99.90
2022-08-09T17:20:11.108Z,99.90
2022-08-09T17:22:31.176Z,99.90
2022-08-09T17:25:03.741Z,99.90
2022-08-09T17:27:38.124Z,99.90
2022-08-09T17:30:13.033Z,99.90
2022-08-09T17:32:44.428Z,99.90
2022-08-09T17:35:14.566Z,99.90
2022-08-09T17:38:02.432Z,99.90
2022-08-09T17:40:30.415Z,99.90
2022-08-09T17:43:10.691Z,99.90
2022-08-09T17:46:03.738Z,99.90
2022-08-09T17:48:39.686Z,99.90
2022-08-09T17:51:19.647Z,99.90
2022-08-09T17:53:52.096Z,99.90
2022-08-09T17:56:27.080Z,99.90
2022-08-09T17:58:57.950Z,99.90
2022-08-09T18:01:25.150Z,99.90
2022-08-09T18:03:54.436Z,99.90
2022-08-09T18:06:31.286Z,99.90
2022-08-09T18:09:03.154Z,99.90
2022-08-09T18:11:47.013Z,99.90
2022-08-09T18:14:20.777Z,99.90
2022-08-09T18:16:49.185Z,99.90
2022-08-09T18:20:57.914Z,99.90
2022-08-09T18:22:06.035Z,99.90
2022-08-09T18:24:40.465Z,99.90
2022-08-09T18:27:09.929Z,99.90
2022-08-09T18:30:40.040Z,99.90
2022-08-09T18:32:29.270Z,99.90
2022-08-09T18:34:56.180Z,99.90
2022-08-09T18:37:47.869Z,99.90
2022-08-09T18:40:11.489Z,99.90
2022-08-09T18:42:39.485Z,99.90
2022-08-09T18:45:21.578Z,99.90
2022-08-09T18:47:58.590Z,99.90
2022-08-09T18:50:25.997Z,99.90
2022-08-09T18:53:01.059Z,99.90
2022-08-09T18:55:45.662Z,99.90
2022-08-09T18:58:22.081Z,99.90
2022-08-09T19:00:59.516Z,99.90
2022-08-09T19:03:28.698Z,99.90
2022-08-09T19:06:02.883Z,99.90
2022-08-09T19:08:30.663Z,99.90
2022-08-09T19:10:57.590Z,99.90
2022-08-09T19:13:46.802Z,99.90
2022-08-09T19:16:13.686Z,99.90
2022-08-09T19:18:48.291Z,99.90
2022-08-09T19:21:16.714Z,99.90
2022-08-09T19:24:37.397Z,99.90
2022-08-09T19:26:36.027Z,99.90
2022-08-09T19:29:09.768Z,99.90
2022-08-09T19:31:49.450Z,99.90
2022-08-09T19:34:22.768Z,99.90
2022-08-09T19:36:55.628Z,99.90
2022-08-09T19:39:43.109Z,99.90
2022-08-09T19:42:15.261Z,99.90
2022-08-09T19:44:49.359Z,99.90
2022-08-09T19:47:23.037Z,99.90
2022-08-09T19:50:09.611Z,99.90
2022-08-09T19:52:38.627Z,99.90
2022-08-09T19:55:30.785Z,99.90
2022-08-09T19:58:16.408Z,99.90
2022-08-09T20:00:45.848Z,99.90
2022-08-09T20:04:17.183Z,99.90
2022-08-09T20:06:03.208Z,99.90
2022-08-09T20:08:34.813Z,99.90
2022-08-09T20:11:04.411Z,99.90
2022-08-09T20:13:36.875Z,99.90
2022-08-09T20:16:33.207Z,99.90
2022-08-09T20:19:42.145Z,99.90
2022-08-09T20:21:56.125Z,99.90
2022-08-09T20:24:31.810Z,99.90
2022-08-09T20:27:02.646Z,99.90
2022-08-09T20:29:37.390Z,99.90
2022-08-09T20:32:28.840Z,99.90
2022-08-09T20:34:57.061Z,99.90
2022-08-09T20:37:24.447Z,99.90
2022-08-09T20:40:15.201Z,99.90
2022-08-09T20:42:38.573Z,99.90
2022-08-09T20:46:01.659Z,99.90
2022-08-09T20:47:54.945Z,99.90
2022-08-09T20:50:48.075Z,99.90
2022-08-09T20:53:35.305Z,99.90
2022-08-09T20:56:00.794Z,99.90
2022-08-09T20:58:32.729Z,99.90
2022-08-09T21:01:32.538Z,99.90
2022-08-09T21:04:08.205Z,99.90
2022-08-09T21:06:42.545Z,99.90
2022-08-09T21:09:11.822Z,99.90
2022-08-09T21:14:31.064Z,99.90
2022-08-09T21:16:59.510Z,99.90
2022-08-09T21:20:19.264Z,99.90
2022-08-09T21:22:35.997Z,99.90
2022-08-09T21:25:20.972Z,99.90
2022-08-09T21:28:01.254Z,99.90
2022-08-09T21:30:28.514Z,99.90
2022-08-09T21:32:57.163Z,99.90
2022-08-09T21:35:24.291Z,99.90
2022-08-09T21:37:59.708Z,99.90
2022-08-09T21:40:30.163Z,99.90
2022-08-09T21:43:01.416Z,99.90
2022-08-09T21:45:28.627Z,99.90
2022-08-09T21:47:58.300Z,99.90
2022-08-09T21:50:38.569Z,99.90
2022-08-09T21:53:24.026Z,99.90
2022-08-09T21:55:54.769Z,99.90
2022-08-09T21:58:21.723Z,99.90
2022-08-09T22:00:58.213Z,99.90
2022-08-09T22:03:26.101Z,99.90
2022-08-09T22:05:54.411Z,99.90
2022-08-09T22:08:24.583Z,99.90
2022-08-09T22:11:00.904Z,99.90
2022-08-09T22:13:43.448Z,99.90
2022-08-09T22:16:12.117Z,99.90
2022-08-09T22:18:53.543Z,99.90
2022-08-09T22:21:22.322Z,99.90
2022-08-09T22:24:01.131Z,99.90
2022-08-09T22:26:35.022Z,99.90
2022-08-09T22:29:10.029Z,99.90
2022-08-09T22:31:50.615Z,99.90
2022-08-09T22:34:25.697Z,99.90
2022-08-09T22:36:53.542Z,99.90
2022-08-09T22:39:58.499Z,99.90
2022-08-09T22:42:21.237Z,99.90
2022-08-09T22:45:00.186Z,99.90
2022-08-09T22:48:10.230Z,99.90
2022-08-09T22:50:25.784Z,99.90
2022-08-09T22:52:54.822Z,99.90
2022-08-09T22:55:25.503Z,99.90
2022-08-09T22:58:00.879Z,99.90
2022-08-09T23:00:31.914Z,99.90
2022-08-09T23:02:58.874Z,99.90
2022-08-09T23:05:25.934Z,99.90
2022-08-09T23:08:29.286Z,99.90
2022-08-09T23:10:57.289Z,99.90
2022-08-09T23:13:24.437Z,99.90
2022-08-09T23:16:02.670Z,99.90
2022-08-09T23:18:31.147Z,99.90
2022-08-09T23:20:58.211Z,99.90
2022-08-09T23:23:25.258Z,99.90
2022-08-09T23:25:52.185Z,99.90
2022-08-09T23:28:19.205Z,99.90
2022-08-09T23:30:51.839Z,99.90
2022-08-09T23:33:20.463Z,99.90
2022-08-09T23:36:04.863Z,99.90
2022-08-09T23:38:35.115Z,99.90
2022-08-09T23:41:02.918Z,99.90
2022-08-09T23:43:29.856Z,99.90
2022-08-09T23:45:56.807Z,99.90
2022-08-09T23:48:23.704Z,99.90
2022-08-09T23:50:50.630Z,99.90
2022-08-09T23:53:17.622Z,99.90
2022-08-09T23:55:49.690Z,99.90
2022-08-09T23:58:26.090Z,99.90
